createdAt,value
2019-04-20T00:07:06.069Z,11276.7
2019-04-20T00:17:05.295Z,11276.8
2019-04-20T00:27:25.242Z,11276.8
2019-04-20T00:37:05.138Z,11276.9
2019-04-20T00:47:11.912Z,11276.9
2019-04-20T00:57:13.113Z,11277
2019-04-20T01:07:12.191Z,11277
2019-04-20T01:17:11.133Z,11277.1
2019-04-20T01:27:02.409Z,11277.2
2019-04-20T01:37:12.974Z,11277.2
2019-04-20T01:47:01.173Z,11277.2
2019-04-20T01:57:06.869Z,11277.3
2019-04-20T02:06:59.649Z,11277.3
2019-04-20T02:17:04.136Z,11277.4
2019-04-20T02:26:55.685Z,11277.4
2019-04-20T02:37:48.460Z,11277.5
2019-04-20T02:47:29.941Z,11277.5
2019-04-20T02:57:30.301Z,11277.5
2019-04-20T03:07:11.444Z,11277.6
2019-04-20T03:17:20.113Z,11277.6
2019-04-20T03:27:10.661Z,11277.6
2019-04-20T03:36:17.816Z,11277.5
2019-04-20T03:45:55.923Z,11277.5
2019-04-20T03:56:01.886Z,11277.6
2019-04-20T04:05:59.448Z,11277.6
2019-04-20T04:15:51.812Z,11277.7
2019-04-20T04:26:03.386Z,11277.7
2019-04-20T04:36:00.050Z,11277.8
2019-04-20T04:45:44.675Z,11277.8
2019-04-20T04:55:50.469Z,11277.9
2019-04-20T05:06:00.289Z,11277.9
2019-04-20T05:15:52.329Z,11277.9
2019-04-20T05:26:01.655Z,11278
2019-04-20T05:36:00.759Z,11278
2019-04-20T05:45:52.461Z,11278
2019-04-20T05:55:54.077Z,11278.1
2019-04-20T06:06:03.082Z,11278.1
2019-04-20T06:15:52.935Z,11278.1
2019-04-20T06:46:03.043Z,11278.2
2019-04-20T06:55:57.125Z,11278.2
2019-04-20T07:05:50.347Z,11278.3
2019-04-20T07:15:46.108Z,11278.3
2019-04-20T07:25:54.041Z,11278.3
2019-04-20T07:35:50.347Z,11278.3
2019-04-20T07:45:48.618Z,11278.4
2019-04-20T07:55:53.621Z,11278.4
2019-04-20T08:05:39.074Z,11278.4
2019-04-20T08:15:48.721Z,11278.5
2019-04-20T08:25:39.433Z,11278.5
2019-04-20T08:35:52.267Z,11278.5
2019-04-20T08:45:46.466Z,11278.6
2019-04-20T08:55:41.199Z,11278.6
2019-04-20T09:05:34.493Z,11278.6
2019-04-20T09:15:23.678Z,11278.7
2019-04-20T09:35:36.968Z,11278.7
2019-04-20T09:45:27.305Z,11278.8
2019-04-20T09:55:31.058Z,11278.8
2019-04-20T10:05:19.841Z,11278.8
2019-04-20T10:15:21.253Z,11278.9
2019-04-20T10:25:18.347Z,11278.9
2019-04-20T10:35:18.802Z,11279
2019-04-20T10:45:17.013Z,11279
2019-04-20T10:55:16.503Z,11279.1
2019-04-20T11:05:15.031Z,11279.1
2019-04-20T11:15:14.583Z,11279.1
2019-04-20T11:27:04.488Z,11279
2019-04-20T11:37:03.410Z,11279
2019-04-20T11:47:02.869Z,11279
2019-04-20T11:57:01.686Z,11279.1
2019-04-20T12:07:01.217Z,11279.1
2019-04-20T12:16:59.978Z,11279.2
2019-04-20T12:27:00.458Z,11279.2
2019-04-20T12:36:58.615Z,11279.3
2019-04-20T12:46:57.828Z,11279.3
2019-04-20T12:56:58.455Z,11279.3
2019-04-20T13:06:57.519Z,11279.4
2019-04-20T13:16:56.849Z,11279.4
2019-04-20T13:26:55.174Z,11279.5
2019-04-20T13:36:54.136Z,11279.5
2019-04-20T13:46:54.657Z,11279.6
2019-04-20T13:56:52.556Z,11279.6
2019-04-20T14:06:53.209Z,11279.7
2019-04-20T14:16:50.989Z,11279.7
2019-04-20T14:26:50.729Z,11279.8
2019-04-20T14:36:50.839Z,11279.8
2019-04-20T14:46:49.686Z,11279.9
2019-04-20T14:56:47.847Z,11279.9
2019-04-20T15:06:47.053Z,11280
2019-04-20T15:16:46.725Z,11280
2019-04-20T15:26:46.583Z,11280.1
2019-04-20T15:36:44.703Z,11280.2
2019-04-20T15:46:43.910Z,11280.2
2019-04-20T15:56:52.351Z,11280.3
2019-04-20T16:06:43.254Z,11280.4
2019-04-20T16:16:42.456Z,11280.4
2019-04-20T16:26:41.912Z,11280.5
2019-04-20T16:36:40.817Z,11280.5
2019-04-20T16:46:40.399Z,11280.6
2019-04-20T16:56:39.020Z,11280.6
2019-04-20T17:06:38.128Z,11280.7
2019-04-20T17:16:37.626Z,11280.7
2019-04-20T17:26:36.819Z,11280.8
2019-04-20T17:36:38.075Z,11280.8
2019-04-20T17:46:44.821Z,11280.9
2019-04-20T17:56:33.992Z,11280.9
2019-04-20T18:06:47.402Z,11281
2019-04-20T18:16:50.667Z,11281
2019-04-20T18:36:36.224Z,11281.1
2019-04-20T18:46:54.190Z,11281.2
2019-04-20T18:56:34.090Z,11281.2
2019-04-20T19:06:29.851Z,11281.3
2019-04-20T19:16:33.339Z,11281.3
2019-04-20T19:26:28.546Z,11281.4
2019-04-20T19:36:34.686Z,11281.4
2019-04-20T19:49:57.429Z,11281.4
2019-04-20T19:59:47.047Z,11281.4
2019-04-20T20:09:49.664Z,11281.4
2019-04-20T20:20:06.583Z,11281.5
2019-04-20T20:29:52.621Z,11281.6
2019-04-20T20:39:51.025Z,11281.6
2019-04-20T20:50:02.691Z,11281.6
2019-04-20T20:59:47.696Z,11281.7
2019-04-20T21:09:39.567Z,11281.8
2019-04-20T21:19:53.226Z,11281.8
2019-04-20T21:29:44.134Z,11281.9
2019-04-20T21:39:43.803Z,11282
2019-04-20T21:49:45.583Z,11282
2019-04-20T21:59:39.625Z,11282.1
2019-04-20T22:09:40.161Z,11282.1
2019-04-20T22:19:41.758Z,11282.2
2019-04-20T22:29:32.537Z,11282.2
2019-04-20T22:39:38.134Z,11282.3
2019-04-20T22:49:43.944Z,11282.4
2019-04-20T22:59:38.138Z,11282.5
2019-04-20T23:09:32.691Z,11282.5
2019-04-20T23:19:36.282Z,11282.6
2019-04-20T23:29:32.593Z,11282.6
2019-04-20T23:39:29.984Z,11282.7
2019-04-20T23:49:30.907Z,11282.8
2019-04-20T23:59:32.311Z,11282.9
